RoSS Sea — WDE3122 — position and weather

sailwx.info

Track history (hours):
 
Tides and Currents Weather Stations Pressure Air Temp Water Temp Dewpoint Dewpoint Depression Visibility Wind Speed Wind Dir Waves Ship Positions

RoSS Sea

Owner: Kirby Inland Marine, LP, Houston, TX. More information available from US FCC via Universal Licensing System and Coast Guard Vessel Documentation Center.

Last reported at 2018-Feb-19 11:50 UTC. Time now 2018-Feb-25 20:13 UTC.
Position N 40°57' W 073°54'.

Length 30 m; draft 3.8 m.

Type: Towing. MMSI: 367334360.

Date/timePositionNaut miles runAvg speedWind from/ knotsBaromVisibWave heightAir tempDewpointWater temp
2018-Feb-19 11:50N 40°57' W 073°54'3 9.6
2018-Feb-19 11:30N 40°54' W 073°55'4 8.4
2018-Feb-19 11:00N 40°50' W 073°57'4 8.0
2018-Feb-19 10:30N 40°47' W 074°00'4 7.8
2018-Feb-19 09:59N 40°43' W 074°01'4 8.0
2018-Feb-19 09:30N 40°39' W 074°04'4 8.7
2018-Feb-19 09:00N 40°38' W 074°10'0 0.0
2018-Feb-19 08:30N 40°38' W 074°10'0 0.0
2018-Feb-19 08:00N 40°38' W 074°10'0 0.0
2018-Feb-19 07:30N 40°38' W 074°10'0 0.0
2018-Feb-19 07:00N 40°38' W 074°10'0 0.0
2018-Feb-19 06:29N 40°38' W 074°10'0 0.0
2018-Feb-19 06:00N 40°38' W 074°10'0 0.0
2018-Feb-19 05:29N 40°38' W 074°10'0 0.0
2018-Feb-19 04:59N 40°38' W 074°10'0 0.0
2018-Feb-19 04:29N 40°38' W 074°10'0 0.0
2018-Feb-19 03:58N 40°38' W 074°10'0 0.0
2018-Feb-19 03:30N 40°38' W 074°10'0 0.0
2018-Feb-19 02:59N 40°38' W 074°10'0 0.0
2018-Feb-19 02:30N 40°38' W 074°10'0 0.0
2018-Feb-19 01:59N 40°38' W 074°10'0 0.0
2018-Feb-19 01:30N 40°38' W 074°10'0 0.0
2018-Feb-19 01:00N 40°38' W 074°10'0 0.0
2018-Feb-19 00:29N 40°38' W 074°10'0 0.0
2018-Feb-18 23:59N 40°38' W 074°10'0 0.0
2018-Feb-18 23:29N 40°38' W 074°10'0 0.0
2018-Feb-18 23:00N 40°38' W 074°10'0 0.0
2018-Feb-18 22:28N 40°38' W 074°10'0 0.0
2018-Feb-18 22:00N 40°38' W 074°10'0 0.0
2018-Feb-18 21:30N 40°38' W 074°10'0 0.0
2018-Feb-18 21:00N 40°38' W 074°10'0 0.0
2018-Feb-18 20:30N 40°38' W 074°10'0 0.0
2018-Feb-18 20:00N 40°38' W 074°10'0 0.0
2018-Feb-18 19:30N 40°38' W 074°10'0 0.0
2018-Feb-18 19:00N 40°38' W 074°10'0 0.0
2018-Feb-18 18:29N 40°38' W 074°10'0 0.0
2018-Feb-18 18:00N 40°38' W 074°10'1 1.8
2018-Feb-18 17:30N 40°38' W 074°09'4 6.9
2018-Feb-18 16:59N 40°40' W 074°04'1 1.5
2018-Feb-18 16:30N 40°40' W 074°03'1 1.2
2018-Feb-18 15:58N 40°40' W 074°04'2 3.6
2018-Feb-18 15:30N 40°39' W 074°06'3 5.3
2018-Feb-18 14:58N 40°38' W 074°10'0 0.0
2018-Feb-18 14:25N 40°38' W 074°10'0 0.0
2018-Feb-18 13:58N 40°38' W 074°10'0 0.0
2018-Feb-18 13:25N 40°38' W 074°10'0 0.0
2018-Feb-18 12:58N 40°38' W 074°10'0 0.0
2018-Feb-18 12:28N 40°38' W 074°10'0 0.0
2018-Feb-18 11:58N 40°38' W 074°10'0 0.0
2018-Feb-18 11:25N 40°38' W 074°10'0 0.0
2018-Feb-18 10:55N 40°38' W 074°10'0 0.0
2018-Feb-18 10:25N 40°38' W 074°10'0 0.0
2018-Feb-18 09:58N 40°38' W 074°10'0 0.0
2018-Feb-18 09:28N 40°38' W 074°10'0 0.0
2018-Feb-18 08:58N 40°38' W 074°10'0 0.0
2018-Feb-18 08:28N 40°38' W 074°10'0 0.0
2018-Feb-18 07:58N 40°38' W 074°10'0 0.0
2018-Feb-18 07:28N 40°38' W 074°10'0 0.0
2018-Feb-18 06:58N 40°38' W 074°10'0 0.0
2018-Feb-18 06:28N 40°38' W 074°10'0 0.0
2018-Feb-18 05:58N 40°38' W 074°10'0 0.0
2018-Feb-18 05:25N 40°38' W 074°10'0 0.0
2018-Feb-18 04:58N 40°38' W 074°10'0 0.0
2018-Feb-18 04:28N 40°38' W 074°10'0 0.0
2018-Feb-18 03:55N 40°38' W 074°10'0 0.0
2018-Feb-18 03:28N 40°38' W 074°10'0 0.0
2018-Feb-18 02:55N 40°38' W 074°10'0 0.0
2018-Feb-18 02:25N 40°38' W 074°10'0 0.0
2018-Feb-18 01:55N 40°38' W 074°10'0 0.0
2018-Feb-18 01:28N 40°38' W 074°10'0 0.0
2018-Feb-18 00:55N 40°38' W 074°10'0 0.0
2018-Feb-18 00:25N 40°38' W 074°10'0 0.0
2018-Feb-17 23:55N 40°38' W 074°10'0 0.0
2018-Feb-17 23:28N 40°38' W 074°10'0 0.0
2018-Feb-17 22:58N 40°38' W 074°10'0 0.0
2018-Feb-17 22:28N 40°38' W 074°10'0 0.0
2018-Feb-17 21:55N 40°38' W 074°10'0 0.0
2018-Feb-17 21:25N 40°38' W 074°10'0 0.0
2018-Feb-17 20:58N 40°38' W 074°10'0 0.0
2018-Feb-17 20:25N 40°38' W 074°10'0 0.0
2018-Feb-17 19:55N 40°38' W 074°10'0 0.0
2018-Feb-17 19:28N 40°38' W 074°10'0 0.0
2018-Feb-17 18:58N 40°38' W 074°10'0 0.0
2018-Feb-17 18:28N 40°38' W 074°10'0 0.0
2018-Feb-17 17:55N 40°38' W 074°10'0 0.0
2018-Feb-17 17:28N 40°38' W 074°10'0 0.0
2018-Feb-17 16:55N 40°38' W 074°10'0 0.0
2018-Feb-17 16:25N 40°38' W 074°10'0 0.0
2018-Feb-17 15:55N 40°38' W 074°10'0 0.0
2018-Feb-17 15:28N 40°38' W 074°10'0 0.0
2018-Feb-17 14:58N 40°38' W 074°10'0 0.0
2018-Feb-17 14:25N 40°38' W 074°10'0 0.0
2018-Feb-17 13:58N 40°38' W 074°10'0 0.0
2018-Feb-17 13:25N 40°38' W 074°10'0 0.0
2018-Feb-17 12:58N 40°38' W 074°10'0 0.0
2018-Feb-17 12:28N 40°38' W 074°10'0 0.0
2018-Feb-17 11:58N 40°38' W 074°10'0 0.0
2018-Feb-17 11:25N 40°38' W 074°10'0 0.0
2018-Feb-17 10:55N 40°38' W 074°10'0 0.0
2018-Feb-17 10:25N 40°38' W 074°10'0 0.0
2018-Feb-17 09:55N 40°38' W 074°10'0 0.0
2018-Feb-17 09:25N 40°38' W 074°10'0 0.0
2018-Feb-17 08:58N 40°38' W 074°10'0 0.0
2018-Feb-17 08:25N 40°38' W 074°10'0 0.0
2018-Feb-17 07:55N 40°38' W 074°10'0 0.0
2018-Feb-17 07:25N 40°38' W 074°10'0 0.0
2018-Feb-17 06:58N 40°38' W 074°10'0 0.0
2018-Feb-17 06:25N 40°38' W 074°10'0 0.0
2018-Feb-17 05:55N 40°38' W 074°10'0 0.0
2018-Feb-17 05:25N 40°38' W 074°10'0 0.0
2018-Feb-17 04:55N 40°38' W 074°10'0 0.0
2018-Feb-17 04:25N 40°38' W 074°10'0 0.0
2018-Feb-17 03:55N 40°38' W 074°10'0 0.0
2018-Feb-17 03:28N 40°38' W 074°10'0 0.0
2018-Feb-17 02:58N 40°38' W 074°10'0 0.0
2018-Feb-17 02:28N 40°38' W 074°10'0 0.0
2018-Feb-17 01:58N 40°38' W 074°10'0 0.0
2018-Feb-17 01:25N 40°38' W 074°10'0 0.0
2018-Feb-17 00:58N 40°38' W 074°10'0 0.0
2018-Feb-17 00:28N 40°38' W 074°10'0 0.0
2018-Feb-16 23:52N 40°38' W 074°10'0 0.0
2018-Feb-16 23:25N 40°38' W 074°10'3 7.4
2018-Feb-16 23:00N 40°39' W 074°06'1 3.0
2018-Feb-16 22:30N 40°40' W 074°04'0 0.2
2018-Feb-16 22:00N 40°40' W 074°04'0 0.1
2018-Feb-16 21:30N 40°40' W 074°04'0 0.4
2018-Feb-16 20:58N 40°40' W 074°04'2 5.0
2018-Feb-16 20:30N 40°39' W 074°07'2 4.3
2018-Feb-16 19:58N 40°39' W 074°10'0 0.0
2018-Feb-16 19:22N 40°39' W 074°10'0 0.0
2018-Feb-16 18:58N 40°39' W 074°10'0 0.0
2018-Feb-16 18:22N 40°39' W 074°10'0 0.0
2018-Feb-16 17:52N 40°39' W 074°10'0 0.0
2018-Feb-16 17:25N 40°39' W 074°10'0 0.0
2018-Feb-16 16:22N 40°39' W 074°10'0 0.0
2018-Feb-16 15:49N 40°39' W 074°10'0 0.0
2018-Feb-16 14:28N 40°39' W 074°10'0 0.0
2018-Feb-16 11:10N 40°39' W 074°10'0 0.0
2018-Feb-16 10:55N 40°39' W 074°10'0 0.0
2018-Feb-16 10:28N 40°39' W 074°10'0 0.0
2018-Feb-16 09:58N 40°39' W 074°10'0 0.0
2018-Feb-16 09:28N 40°39' W 074°10'0 0.0
2018-Feb-16 08:58N 40°39' W 074°10'0 0.0
2018-Feb-16 08:22N 40°39' W 074°10'0 0.0
2018-Feb-16 07:58N 40°39' W 074°10'0 0.0
2018-Feb-16 07:19N 40°39' W 074°10'0 0.0
2018-Feb-16 06:58N 40°39' W 074°10'0 0.0
2018-Feb-16 06:25N 40°39' W 074°10'0 0.0
2018-Feb-16 05:52N 40°39' W 074°10'0 0.0
2018-Feb-16 05:25N 40°39' W 074°10'0 0.0
2018-Feb-16 04:52N 40°39' W 074°10'0 0.0
2018-Feb-16 04:25N 40°39' W 074°10'0 0.0
2018-Feb-16 03:55N 40°39' W 074°10'0 0.0
2018-Feb-16 03:28N 40°39' W 074°10'0 0.0
2018-Feb-16 02:49N 40°39' W 074°10'0 0.0
2018-Feb-16 02:28N 40°39' W 074°10'0 0.0
2018-Feb-16 01:55N 40°39' W 074°10'0 0.0
2018-Feb-16 01:25N 40°39' W 074°10'0 0.0
2018-Feb-16 00:55N 40°39' W 074°10'0 0.0
2018-Feb-16 00:25N 40°39' W 074°10'0 0.0
2018-Feb-16 00:00N 40°39' W 074°10'3 6.5
2018-Feb-15 23:29N 40°39' W 074°06'1 2.4
2018-Feb-15 23:00N 40°40' W 074°04'0 0.2
2018-Feb-15 22:29N 40°40' W 074°04'0 0.5
2018-Feb-15 22:01N 40°40' W 074°04'2 3.8
2018-Feb-15 21:29N 40°39' W 074°06'3 5.3
2018-Feb-15 21:00N 40°39' W 074°10'0 0.1
2018-Feb-15 20:30N 40°39' W 074°10'0 0.0
2018-Feb-15 20:00N 40°39' W 074°10'0 0.0
2018-Feb-15 19:30N 40°39' W 074°10'0 0.0
2018-Feb-15 19:00N 40°39' W 074°10'0 0.0
2018-Feb-15 18:28N 40°39' W 074°10'0 0.0
2018-Feb-15 18:00N 40°39' W 074°10'0 0.0
2018-Feb-15 17:30N 40°39' W 074°10'2 3.5
2018-Feb-15 16:59N 40°39' W 074°08'3 6.9
2018-Feb-15 16:30N 40°40' W 074°03'4 8.8
2018-Feb-15 16:00N 40°43' W 073°59'3 6.1
2018-Feb-15 15:26N 40°46' W 073°57'0 0.0
2018-Feb-15 14:58N 40°46' W 073°57'0 0.0
2018-Feb-15 14:29N 40°46' W 073°57'4 7.3
2018-Feb-15 14:00N 40°42' W 073°59'510.8
2018-Feb-15 13:30N 40°39' W 074°05'4 7.1
2018-Feb-15 12:56N 40°39' W 074°10'0 0.0
2018-Feb-15 12:29N 40°39' W 074°10'0 0.0
2018-Feb-15 11:56N 40°39' W 074°10'0 0.1
2018-Feb-15 11:26N 40°38' W 074°10'0 0.0
2018-Feb-15 10:56N 40°38' W 074°10'0 0.0
2018-Feb-15 10:26N 40°38' W 074°10'0 0.0
2018-Feb-15 09:59N 40°38' W 074°10'0 0.0
2018-Feb-15 09:29N 40°38' W 074°10'0 0.0
2018-Feb-15 08:56N 40°38' W 074°10'0 0.0
2018-Feb-15 08:29N 40°38' W 074°10'0 0.0
2018-Feb-15 07:59N 40°38' W 074°10'0 0.0
2018-Feb-15 07:26N 40°38' W 074°10'0 0.0
2018-Feb-15 06:59N 40°38' W 074°10'0 0.0
2018-Feb-15 06:23N 40°38' W 074°10'0 0.0
2018-Feb-15 05:56N 40°38' W 074°10'0 0.0
2018-Feb-15 05:26N 40°38' W 074°10'0 0.0
2018-Feb-15 04:50N 40°38' W 074°10'0 0.0
2018-Feb-15 04:26N 40°38' W 074°10'0 0.0
2018-Feb-15 03:59N 40°38' W 074°10'0 0.0
2018-Feb-15 03:29N 40°38' W 074°10'0 0.0
2018-Feb-15 02:59N 40°38' W 074°10'0 0.0
2018-Feb-15 02:29N 40°38' W 074°10'0 0.0
2018-Feb-15 01:56N 40°38' W 074°10'0 0.0
2018-Feb-15 01:29N 40°38' W 074°10'0 0.0
2018-Feb-15 00:59N 40°38' W 074°10'0 0.0
2018-Feb-15 00:26N 40°38' W 074°10'0 0.0
2018-Feb-14 23:56N 40°38' W 074°10'0 0.0
2018-Feb-14 23:26N 40°38' W 074°10'0 0.0
2018-Feb-14 22:59N 40°38' W 074°10'0 0.0
2018-Feb-14 22:29N 40°38' W 074°10'0 0.0
2018-Feb-14 21:59N 40°38' W 074°10'0 0.0
2018-Feb-14 21:23N 40°38' W 074°10'0 0.0
2018-Feb-14 20:59N 40°38' W 074°10'0 0.0
2018-Feb-14 20:26N 40°38' W 074°10'0 0.0
2018-Feb-14 19:59N 40°38' W 074°10'0 0.0
2018-Feb-14 19:26N 40°38' W 074°10'0 0.0
2018-Feb-14 18:59N 40°38' W 074°10'0 0.0
2018-Feb-14 18:29N 40°38' W 074°10'0 0.0
2018-Feb-14 17:59N 40°38' W 074°10'0 0.0
2018-Feb-14 17:29N 40°38' W 074°10'0 0.0
2018-Feb-14 16:59N 40°38' W 074°10'0 0.0
2018-Feb-14 16:29N 40°38' W 074°10'0 0.0
2018-Feb-14 15:59N 40°38' W 074°10'0 0.0
2018-Feb-14 15:29N 40°38' W 074°10'0 0.0
2018-Feb-14 14:59N 40°38' W 074°10'0 0.0
2018-Feb-14 14:14N 40°38' W 074°10'0 0.0
2018-Feb-14 13:50N 40°38' W 074°10'0 0.0
2018-Feb-14 13:26N 40°38' W 074°10'0 0.0
2018-Feb-14 12:56N 40°38' W 074°10'0 0.0
2018-Feb-14 12:29N 40°38' W 074°10'0 0.0
2018-Feb-14 11:56N 40°38' W 074°10'0 0.0
2018-Feb-14 11:29N 40°38' W 074°10'0 0.0
2018-Feb-14 10:59N 40°38' W 074°10'0 0.0
2018-Feb-14 10:29N 40°38' W 074°10'0 0.0
2018-Feb-14 09:59N 40°38' W 074°10'0 0.0
2018-Feb-14 09:29N 40°38' W 074°10'0 0.0
2018-Feb-14 08:59N 40°38' W 074°10'0 0.0
2018-Feb-14 08:29N 40°38' W 074°10'0 0.0
2018-Feb-14 07:59N 40°38' W 074°10'0 0.0
2018-Feb-14 07:29N 40°38' W 074°10'0 0.0
2018-Feb-14 06:59N 40°38' W 074°10'0 0.0
2018-Feb-14 06:29N 40°38' W 074°10'0 0.0
2018-Feb-14 05:59N 40°38' W 074°10'0 0.0
2018-Feb-14 05:29N 40°38' W 074°10'0 0.0
2018-Feb-14 04:56N 40°38' W 074°10'0 0.0
2018-Feb-14 04:29N 40°38' W 074°10'0 0.0
2018-Feb-14 03:59N 40°38' W 074°10'0 0.0
2018-Feb-14 03:29N 40°38' W 074°10'0 0.0
2018-Feb-14 02:59N 40°38' W 074°10'0 0.0
2018-Feb-14 02:29N 40°38' W 074°10'0 0.0
2018-Feb-14 01:59N 40°38' W 074°10'0 0.0
2018-Feb-14 01:29N 40°38' W 074°10'0 0.0
2018-Feb-14 00:59N 40°38' W 074°10'0 0.0
2018-Feb-14 00:29N 40°38' W 074°10'0 0.0
2018-Feb-13 23:56N 40°38' W 074°10'0 0.0
2018-Feb-13 23:29N 40°38' W 074°10'0 0.0
2018-Feb-13 22:59N 40°38' W 074°10'0 0.0
2018-Feb-13 22:29N 40°38' W 074°10'0 0.0
2018-Feb-13 21:50N 40°38' W 074°10'0 0.0
2018-Feb-13 21:26N 40°38' W 074°10'0 0.0
2018-Feb-13 20:59N 40°38' W 074°10'0 0.0
2018-Feb-13 20:29N 40°38' W 074°10'0 0.0
2018-Feb-13 19:56N 40°38' W 074°10'0 0.0
2018-Feb-13 19:26N 40°38' W 074°10'0 0.0
2018-Feb-13 18:59N 40°38' W 074°10'0 0.0
2018-Feb-13 18:26N 40°38' W 074°10'0 0.0
2018-Feb-13 17:59N 40°38' W 074°10'0 0.0
2018-Feb-13 17:26N 40°38' W 074°10'0 0.0
2018-Feb-13 16:59N 40°38' W 074°10'0 0.0
2018-Feb-13 16:29N 40°38' W 074°10'0 0.0
2018-Feb-13 15:59N 40°38' W 074°10'0 0.0
2018-Feb-13 15:26N 40°38' W 074°10'2 4.8
2018-Feb-13 15:00N 40°39' W 074°07'4 7.3
2018-Feb-13 14:30N 40°37' W 074°03'5 9.6
2018-Feb-13 14:00N 40°32' W 074°01'47 9.6
2018-Feb-13 09:07N 39°46' W 074°03'210.0
2018-Feb-13 08:57N 39°44' W 074°03'6 9.9
2018-Feb-13 08:22N 39°39' W 074°07'60 6.9
2018-Feb-12 23:38N 39°10' W 075°15'1 9.6
2018-Feb-12 23:30N 39°11' W 075°16'5 9.8
2018-Feb-12 23:00N 39°15' W 075°19'510.0
2018-Feb-12 22:30N 39°19' W 075°24'511.0
2018-Feb-12 22:00N 39°23' W 075°28'611.4
2018-Feb-12 21:30N 39°27' W 075°33'611.6
2018-Feb-12 21:00N 39°33' W 075°33'611.6
2018-Feb-12 20:30N 39°38' W 075°34'612.7
2018-Feb-12 20:00N 39°44' W 075°30'612.2
2018-Feb-12 19:30N 39°48' W 075°25'612.0
2018-Feb-12 19:01N 39°51' W 075°18'611.4
2018-Feb-12 18:31N 39°53' W 075°11'0 0.9
2018-Feb-12 18:01N 39°53' W 075°10'1 1.1
2018-Feb-12 17:30N 39°53' W 075°11'4 8.1
2018-Feb-12 17:00N 39°51' W 075°15'4 9.0
2018-Feb-12 16:30N 39°50' W 075°21'5 9.2
2018-Feb-12 16:00N 39°48' W 075°26'5 9.5
2018-Feb-12 15:30N 39°44' W 075°30'5 9.6
2018-Feb-12 15:00N 39°40' W 075°32'4 8.4
2018-Feb-12 14:30N 39°36' W 075°34'3 5.7
2018-Feb-12 14:00N 39°33' W 075°36'4 8.1
2018-Feb-12 13:30N 39°33' W 075°41'4 8.8
2018-Feb-12 13:00N 39°32' W 075°47'4 8.9
2018-Feb-12 12:30N 39°31' W 075°53'5 9.5
2018-Feb-12 12:00N 39°28' W 075°58'5 9.6
2018-Feb-12 11:29N 39°25' W 076°02'5 9.5
2018-Feb-12 11:00N 39°22' W 076°07'11 8.6
2018-Feb-12 09:44N 39°13' W 076°15'4 8.7
2018-Feb-12 09:18N 39°10' W 076°18'4 1.1
2018-Feb-12 05:19N 39°06' W 076°20'2 5.1
2018-Feb-12 04:55N 39°04' W 076°21'3 7.8
2018-Feb-12 04:29N 39°01' W 076°22'4 8.0
2018-Feb-12 04:00N 38°57' W 076°23'4 8.3
2018-Feb-12 03:30N 38°53' W 076°24'4 8.7
2018-Feb-12 03:00N 38°49' W 076°26'99 8.4
2018-Feb-11 15:12N 37°11' W 076°10'2 9.1
2018-Feb-11 14:56N 37°09' W 076°09'5 9.2
2018-Feb-11 14:26N 37°04' W 076°10'4 8.8
2018-Feb-11 14:00N 37°00' W 076°12'5 9.5
2018-Feb-11 13:30N 36°60' W 076°18'3 5.1
2018-Feb-11 12:59N 36°58' W 076°20'3 6.3
2018-Feb-11 12:29N 36°57' W 076°24'4 8.0
2018-Feb-11 12:00N 36°60' W 076°28'1 0.0
2018-Feb-10 05:44N 37°00' W 076°28'4 7.4
2018-Feb-10 05:14N 36°58' W 076°25'0 0.9
2018-Feb-10 05:00N 36°58' W 076°25'0 0.1
2018-Feb-10 04:19N 36°58' W 076°25'0 0.1
2018-Feb-10 03:55N 36°58' W 076°25'0 0.0
2018-Feb-10 03:25N 36°58' W 076°25'0 0.0
2018-Feb-10 02:55N 36°58' W 076°25'0 0.0
2018-Feb-10 02:25N 36°58' W 076°25'0 0.0
2018-Feb-10 01:58N 36°58' W 076°25'0 0.0
2018-Feb-10 01:25N 36°58' W 076°25'0 0.0
2018-Feb-10 00:58N 36°58' W 076°25'0 0.0
2018-Feb-10 00:25N 36°58' W 076°25'0 0.0
2018-Feb-09 23:58N 36°58' W 076°25'0 0.0
2018-Feb-09 23:28N 36°58' W 076°25'0 0.0
2018-Feb-09 22:58N 36°58' W 076°25'0 0.0
2018-Feb-09 22:40N 36°58' W 076°25'0 0.0
2018-Feb-09 21:00N 36°58' W 076°25'3 0.3
2018-Feb-09 12:31N 36°58' W 076°22'  
Track history (hours):
 
Tides and Currents Weather Stations Pressure Air Temp Water Temp Dewpoint Dewpoint Depression Visibility Wind Speed Wind Dir Waves Ship Positions

RoSS Sea

Owner: Kirby Inland Marine, LP, Houston, TX. More information available from US FCC via Universal Licensing System and Coast Guard Vessel Documentation Center.

Last reported at 2018-Feb-19 11:50 UTC. Time now 2018-Feb-25 20:13 UTC.
Position N 40°57' W 073°54'.

Length 30 m; draft 3.8 m.

Type: Towing. MMSI: 367334360.

Date/timePositionNaut miles runAvg speedWind from/ knotsBaromVisibWave heightAir tempDewpointWater temp
2018-Feb-19 11:50N 40°57' W 073°54'3 9.6
2018-Feb-19 11:30N 40°54' W 073°55'4 8.4
2018-Feb-19 11:00N 40°50' W 073°57'4 8.0
2018-Feb-19 10:30N 40°47' W 074°00'4 7.8
2018-Feb-19 09:59N 40°43' W 074°01'4 8.0
2018-Feb-19 09:30N 40°39' W 074°04'4 8.7
2018-Feb-19 09:00N 40°38' W 074°10'0 0.0
2018-Feb-19 08:30N 40°38' W 074°10'0 0.0
2018-Feb-19 08:00N 40°38' W 074°10'0 0.0
2018-Feb-19 07:30N 40°38' W 074°10'0 0.0
2018-Feb-19 07:00N 40°38' W 074°10'0 0.0
2018-Feb-19 06:29N 40°38' W 074°10'0 0.0
2018-Feb-19 06:00N 40°38' W 074°10'0 0.0
2018-Feb-19 05:29N 40°38' W 074°10'0 0.0
2018-Feb-19 04:59N 40°38' W 074°10'0 0.0
2018-Feb-19 04:29N 40°38' W 074°10'0 0.0
2018-Feb-19 03:58N 40°38' W 074°10'0 0.0
2018-Feb-19 03:30N 40°38' W 074°10'0 0.0
2018-Feb-19 02:59N 40°38' W 074°10'0 0.0
2018-Feb-19 02:30N 40°38' W 074°10'0 0.0
2018-Feb-19 01:59N 40°38' W 074°10'0 0.0
2018-Feb-19 01:30N 40°38' W 074°10'0 0.0
2018-Feb-19 01:00N 40°38' W 074°10'0 0.0
2018-Feb-19 00:29N 40°38' W 074°10'0 0.0
2018-Feb-18 23:59N 40°38' W 074°10'0 0.0
2018-Feb-18 23:29N 40°38' W 074°10'0 0.0
2018-Feb-18 23:00N 40°38' W 074°10'0 0.0
2018-Feb-18 22:28N 40°38' W 074°10'0 0.0
2018-Feb-18 22:00N 40°38' W 074°10'0 0.0
2018-Feb-18 21:30N 40°38' W 074°10'0 0.0
2018-Feb-18 21:00N 40°38' W 074°10'0 0.0
2018-Feb-18 20:30N 40°38' W 074°10'0 0.0
2018-Feb-18 20:00N 40°38' W 074°10'0 0.0
2018-Feb-18 19:30N 40°38' W 074°10'0 0.0
2018-Feb-18 19:00N 40°38' W 074°10'0 0.0
2018-Feb-18 18:29N 40°38' W 074°10'0 0.0
2018-Feb-18 18:00N 40°38' W 074°10'1 1.8
2018-Feb-18 17:30N 40°38' W 074°09'4 6.9
2018-Feb-18 16:59N 40°40' W 074°04'1 1.5
2018-Feb-18 16:30N 40°40' W 074°03'1 1.2
2018-Feb-18 15:58N 40°40' W 074°04'2 3.6
2018-Feb-18 15:30N 40°39' W 074°06'3 5.3
2018-Feb-18 14:58N 40°38' W 074°10'0 0.0
2018-Feb-18 14:25N 40°38' W 074°10'0 0.0
2018-Feb-18 13:58N 40°38' W 074°10'0 0.0
2018-Feb-18 13:25N 40°38' W 074°10'0 0.0
2018-Feb-18 12:58N 40°38' W 074°10'0 0.0
2018-Feb-18 12:28N 40°38' W 074°10'0 0.0
2018-Feb-18 11:58N 40°38' W 074°10'0 0.0
2018-Feb-18 11:25N 40°38' W 074°10'0 0.0
2018-Feb-18 10:55N 40°38' W 074°10'0 0.0
2018-Feb-18 10:25N 40°38' W 074°10'0 0.0
2018-Feb-18 09:58N 40°38' W 074°10'0 0.0
2018-Feb-18 09:28N 40°38' W 074°10'0 0.0
2018-Feb-18 08:58N 40°38' W 074°10'0 0.0
2018-Feb-18 08:28N 40°38' W 074°10'0 0.0
2018-Feb-18 07:58N 40°38' W 074°10'0 0.0
2018-Feb-18 07:28N 40°38' W 074°10'0 0.0
2018-Feb-18 06:58N 40°38' W 074°10'0 0.0
2018-Feb-18 06:28N 40°38' W 074°10'0 0.0
2018-Feb-18 05:58N 40°38' W 074°10'0 0.0
2018-Feb-18 05:25N 40°38' W 074°10'0 0.0
2018-Feb-18 04:58N 40°38' W 074°10'0 0.0
2018-Feb-18 04:28N 40°38' W 074°10'0 0.0
2018-Feb-18 03:55N 40°38' W 074°10'0 0.0
2018-Feb-18 03:28N 40°38' W 074°10'0 0.0
2018-Feb-18 02:55N 40°38' W 074°10'0 0.0
2018-Feb-18 02:25N 40°38' W 074°10'0 0.0
2018-Feb-18 01:55N 40°38' W 074°10'0 0.0
2018-Feb-18 01:28N 40°38' W 074°10'0 0.0
2018-Feb-18 00:55N 40°38' W 074°10'0 0.0
2018-Feb-18 00:25N 40°38' W 074°10'0 0.0
2018-Feb-17 23:55N 40°38' W 074°10'0 0.0
2018-Feb-17 23:28N 40°38' W 074°10'0 0.0
2018-Feb-17 22:58N 40°38' W 074°10'0 0.0
2018-Feb-17 22:28N 40°38' W 074°10'0 0.0
2018-Feb-17 21:55N 40°38' W 074°10'0 0.0
2018-Feb-17 21:25N 40°38' W 074°10'0 0.0
2018-Feb-17 20:58N 40°38' W 074°10'0 0.0
2018-Feb-17 20:25N 40°38' W 074°10'0 0.0
2018-Feb-17 19:55N 40°38' W 074°10'0 0.0
2018-Feb-17 19:28N 40°38' W 074°10'0 0.0
2018-Feb-17 18:58N 40°38' W 074°10'0 0.0
2018-Feb-17 18:28N 40°38' W 074°10'0 0.0
2018-Feb-17 17:55N 40°38' W 074°10'0 0.0
2018-Feb-17 17:28N 40°38' W 074°10'0 0.0
2018-Feb-17 16:55N 40°38' W 074°10'0 0.0
2018-Feb-17 16:25N 40°38' W 074°10'0 0.0
2018-Feb-17 15:55N 40°38' W 074°10'0 0.0
2018-Feb-17 15:28N 40°38' W 074°10'0 0.0
2018-Feb-17 14:58N 40°38' W 074°10'0 0.0
2018-Feb-17 14:25N 40°38' W 074°10'0 0.0
2018-Feb-17 13:58N 40°38' W 074°10'0 0.0
2018-Feb-17 13:25N 40°38' W 074°10'0 0.0
2018-Feb-17 12:58N 40°38' W 074°10'0 0.0
2018-Feb-17 12:28N 40°38' W 074°10'0 0.0
2018-Feb-17 11:58N 40°38' W 074°10'0 0.0
2018-Feb-17 11:25N 40°38' W 074°10'0 0.0
2018-Feb-17 10:55N 40°38' W 074°10'0 0.0
2018-Feb-17 10:25N 40°38' W 074°10'0 0.0
2018-Feb-17 09:55N 40°38' W 074°10'0 0.0
2018-Feb-17 09:25N 40°38' W 074°10'0 0.0
2018-Feb-17 08:58N 40°38' W 074°10'0 0.0
2018-Feb-17 08:25N 40°38' W 074°10'0 0.0
2018-Feb-17 07:55N 40°38' W 074°10'0 0.0
2018-Feb-17 07:25N 40°38' W 074°10'0 0.0
2018-Feb-17 06:58N 40°38' W 074°10'0 0.0
2018-Feb-17 06:25N 40°38' W 074°10'0 0.0
2018-Feb-17 05:55N 40°38' W 074°10'0 0.0
2018-Feb-17 05:25N 40°38' W 074°10'0 0.0
2018-Feb-17 04:55N 40°38' W 074°10'0 0.0
2018-Feb-17 04:25N 40°38' W 074°10'0 0.0
2018-Feb-17 03:55N 40°38' W 074°10'0 0.0
2018-Feb-17 03:28N 40°38' W 074°10'0 0.0
2018-Feb-17 02:58N 40°38' W 074°10'0 0.0
2018-Feb-17 02:28N 40°38' W 074°10'0 0.0
2018-Feb-17 01:58N 40°38' W 074°10'0 0.0
2018-Feb-17 01:25N 40°38' W 074°10'0 0.0
2018-Feb-17 00:58N 40°38' W 074°10'0 0.0
2018-Feb-17 00:28N 40°38' W 074°10'0 0.0
2018-Feb-16 23:52N 40°38' W 074°10'0 0.0
2018-Feb-16 23:25N 40°38' W 074°10'3 7.4
2018-Feb-16 23:00N 40°39' W 074°06'1 3.0
2018-Feb-16 22:30N 40°40' W 074°04'0 0.2
2018-Feb-16 22:00N 40°40' W 074°04'0 0.1
2018-Feb-16 21:30N 40°40' W 074°04'0 0.4
2018-Feb-16 20:58N 40°40' W 074°04'2 5.0
2018-Feb-16 20:30N 40°39' W 074°07'2 4.3
2018-Feb-16 19:58N 40°39' W 074°10'0 0.0
2018-Feb-16 19:22N 40°39' W 074°10'0 0.0
2018-Feb-16 18:58N 40°39' W 074°10'0 0.0
2018-Feb-16 18:22N 40°39' W 074°10'0 0.0
2018-Feb-16 17:52N 40°39' W 074°10'0 0.0
2018-Feb-16 17:25N 40°39' W 074°10'0 0.0
2018-Feb-16 16:22N 40°39' W 074°10'0 0.0
2018-Feb-16 15:49N 40°39' W 074°10'0 0.0
2018-Feb-16 14:28N 40°39' W 074°10'0 0.0
2018-Feb-16 11:10N 40°39' W 074°10'0 0.0
2018-Feb-16 10:55N 40°39' W 074°10'0 0.0
2018-Feb-16 10:28N 40°39' W 074°10'0 0.0
2018-Feb-16 09:58N 40°39' W 074°10'0 0.0
2018-Feb-16 09:28N 40°39' W 074°10'0 0.0
2018-Feb-16 08:58N 40°39' W 074°10'0 0.0
2018-Feb-16 08:22N 40°39' W 074°10'0 0.0
2018-Feb-16 07:58N 40°39' W 074°10'0 0.0
2018-Feb-16 07:19N 40°39' W 074°10'0 0.0
2018-Feb-16 06:58N 40°39' W 074°10'0 0.0
2018-Feb-16 06:25N 40°39' W 074°10'0 0.0
2018-Feb-16 05:52N 40°39' W 074°10'0 0.0
2018-Feb-16 05:25N 40°39' W 074°10'0 0.0
2018-Feb-16 04:52N 40°39' W 074°10'0 0.0
2018-Feb-16 04:25N 40°39' W 074°10'0 0.0
2018-Feb-16 03:55N 40°39' W 074°10'0 0.0
2018-Feb-16 03:28N 40°39' W 074°10'0 0.0
2018-Feb-16 02:49N 40°39' W 074°10'0 0.0
2018-Feb-16 02:28N 40°39' W 074°10'0 0.0
2018-Feb-16 01:55N 40°39' W 074°10'0 0.0
2018-Feb-16 01:25N 40°39' W 074°10'0 0.0
2018-Feb-16 00:55N 40°39' W 074°10'0 0.0
2018-Feb-16 00:25N 40°39' W 074°10'0 0.0
2018-Feb-16 00:00N 40°39' W 074°10'3 6.5
2018-Feb-15 23:29N 40°39' W 074°06'1 2.4
2018-Feb-15 23:00N 40°40' W 074°04'0 0.2
2018-Feb-15 22:29N 40°40' W 074°04'0 0.5
2018-Feb-15 22:01N 40°40' W 074°04'2 3.8
2018-Feb-15 21:29N 40°39' W 074°06'3 5.3
2018-Feb-15 21:00N 40°39' W 074°10'0 0.1
2018-Feb-15 20:30N 40°39' W 074°10'0 0.0
2018-Feb-15 20:00N 40°39' W 074°10'0 0.0
2018-Feb-15 19:30N 40°39' W 074°10'0 0.0
2018-Feb-15 19:00N 40°39' W 074°10'0 0.0
2018-Feb-15 18:28N 40°39' W 074°10'0 0.0
2018-Feb-15 18:00N 40°39' W 074°10'0 0.0
2018-Feb-15 17:30N 40°39' W 074°10'2 3.5
2018-Feb-15 16:59N 40°39' W 074°08'3 6.9
2018-Feb-15 16:30N 40°40' W 074°03'4 8.8
2018-Feb-15 16:00N 40°43' W 073°59'3 6.1
2018-Feb-15 15:26N 40°46' W 073°57'0 0.0
2018-Feb-15 14:58N 40°46' W 073°57'0 0.0
2018-Feb-15 14:29N 40°46' W 073°57'4 7.3
2018-Feb-15 14:00N 40°42' W 073°59'510.8
2018-Feb-15 13:30N 40°39' W 074°05'4 7.1
2018-Feb-15 12:56N 40°39' W 074°10'0 0.0
2018-Feb-15 12:29N 40°39' W 074°10'0 0.0
2018-Feb-15 11:56N 40°39' W 074°10'0 0.1
2018-Feb-15 11:26N 40°38' W 074°10'0 0.0
2018-Feb-15 10:56N 40°38' W 074°10'0 0.0
2018-Feb-15 10:26N 40°38' W 074°10'0 0.0
2018-Feb-15 09:59N 40°38' W 074°10'0 0.0
2018-Feb-15 09:29N 40°38' W 074°10'0 0.0
2018-Feb-15 08:56N 40°38' W 074°10'0 0.0
2018-Feb-15 08:29N 40°38' W 074°10'0 0.0
2018-Feb-15 07:59N 40°38' W 074°10'0 0.0
2018-Feb-15 07:26N 40°38' W 074°10'0 0.0
2018-Feb-15 06:59N 40°38' W 074°10'0 0.0
2018-Feb-15 06:23N 40°38' W 074°10'0 0.0
2018-Feb-15 05:56N 40°38' W 074°10'0 0.0
2018-Feb-15 05:26N 40°38' W 074°10'0 0.0
2018-Feb-15 04:50N 40°38' W 074°10'0 0.0
2018-Feb-15 04:26N 40°38' W 074°10'0 0.0
2018-Feb-15 03:59N 40°38' W 074°10'0 0.0
2018-Feb-15 03:29N 40°38' W 074°10'0 0.0
2018-Feb-15 02:59N 40°38' W 074°10'0 0.0
2018-Feb-15 02:29N 40°38' W 074°10'0 0.0
2018-Feb-15 01:56N 40°38' W 074°10'0 0.0
2018-Feb-15 01:29N 40°38' W 074°10'0 0.0
2018-Feb-15 00:59N 40°38' W 074°10'0 0.0
2018-Feb-15 00:26N 40°38' W 074°10'0 0.0
2018-Feb-14 23:56N 40°38' W 074°10'0 0.0
2018-Feb-14 23:26N 40°38' W 074°10'0 0.0
2018-Feb-14 22:59N 40°38' W 074°10'0 0.0
2018-Feb-14 22:29N 40°38' W 074°10'0 0.0
2018-Feb-14 21:59N 40°38' W 074°10'0 0.0
2018-Feb-14 21:23N 40°38' W 074°10'0 0.0
2018-Feb-14 20:59N 40°38' W 074°10'0 0.0
2018-Feb-14 20:26N 40°38' W 074°10'0 0.0
2018-Feb-14 19:59N 40°38' W 074°10'0 0.0
2018-Feb-14 19:26N 40°38' W 074°10'0 0.0
2018-Feb-14 18:59N 40°38' W 074°10'0 0.0
2018-Feb-14 18:29N 40°38' W 074°10'0 0.0
2018-Feb-14 17:59N 40°38' W 074°10'0 0.0
2018-Feb-14 17:29N 40°38' W 074°10'0 0.0
2018-Feb-14 16:59N 40°38' W 074°10'0 0.0
2018-Feb-14 16:29N 40°38' W 074°10'0 0.0
2018-Feb-14 15:59N 40°38' W 074°10'0 0.0
2018-Feb-14 15:29N 40°38' W 074°10'0 0.0
2018-Feb-14 14:59N 40°38' W 074°10'0 0.0
2018-Feb-14 14:14N 40°38' W 074°10'0 0.0
2018-Feb-14 13:50N 40°38' W 074°10'0 0.0
2018-Feb-14 13:26N 40°38' W 074°10'0 0.0
2018-Feb-14 12:56N 40°38' W 074°10'0 0.0
2018-Feb-14 12:29N 40°38' W 074°10'0 0.0
2018-Feb-14 11:56N 40°38' W 074°10'0 0.0
2018-Feb-14 11:29N 40°38' W 074°10'0 0.0
2018-Feb-14 10:59N 40°38' W 074°10'0 0.0
2018-Feb-14 10:29N 40°38' W 074°10'0 0.0
2018-Feb-14 09:59N 40°38' W 074°10'0 0.0
2018-Feb-14 09:29N 40°38' W 074°10'0 0.0
2018-Feb-14 08:59N 40°38' W 074°10'0 0.0
2018-Feb-14 08:29N 40°38' W 074°10'0 0.0
2018-Feb-14 07:59N 40°38' W 074°10'0 0.0
2018-Feb-14 07:29N 40°38' W 074°10'0 0.0
2018-Feb-14 06:59N 40°38' W 074°10'0 0.0
2018-Feb-14 06:29N 40°38' W 074°10'0 0.0
2018-Feb-14 05:59N 40°38' W 074°10'0 0.0
2018-Feb-14 05:29N 40°38' W 074°10'0 0.0
2018-Feb-14 04:56N 40°38' W 074°10'0 0.0
2018-Feb-14 04:29N 40°38' W 074°10'0 0.0
2018-Feb-14 03:59N 40°38' W 074°10'0 0.0
2018-Feb-14 03:29N 40°38' W 074°10'0 0.0
2018-Feb-14 02:59N 40°38' W 074°10'0 0.0
2018-Feb-14 02:29N 40°38' W 074°10'0 0.0
2018-Feb-14 01:59N 40°38' W 074°10'0 0.0
2018-Feb-14 01:29N 40°38' W 074°10'0 0.0
2018-Feb-14 00:59N 40°38' W 074°10'0 0.0
2018-Feb-14 00:29N 40°38' W 074°10'0 0.0
2018-Feb-13 23:56N 40°38' W 074°10'0 0.0
2018-Feb-13 23:29N 40°38' W 074°10'0 0.0
2018-Feb-13 22:59N 40°38' W 074°10'0 0.0
2018-Feb-13 22:29N 40°38' W 074°10'0 0.0
2018-Feb-13 21:50N 40°38' W 074°10'0 0.0
2018-Feb-13 21:26N 40°38' W 074°10'0 0.0
2018-Feb-13 20:59N 40°38' W 074°10'0 0.0
2018-Feb-13 20:29N 40°38' W 074°10'0 0.0
2018-Feb-13 19:56N 40°38' W 074°10'0 0.0
2018-Feb-13 19:26N 40°38' W 074°10'0 0.0
2018-Feb-13 18:59N 40°38' W 074°10'0 0.0
2018-Feb-13 18:26N 40°38' W 074°10'0 0.0
2018-Feb-13 17:59N 40°38' W 074°10'0 0.0
2018-Feb-13 17:26N 40°38' W 074°10'0 0.0
2018-Feb-13 16:59N 40°38' W 074°10'0 0.0
2018-Feb-13 16:29N 40°38' W 074°10'0 0.0
2018-Feb-13 15:59N 40°38' W 074°10'0 0.0
2018-Feb-13 15:26N 40°38' W 074°10'2 4.8
2018-Feb-13 15:00N 40°39' W 074°07'4 7.3
2018-Feb-13 14:30N 40°37' W 074°03'5 9.6
2018-Feb-13 14:00N 40°32' W 074°01'47 9.6
2018-Feb-13 09:07N 39°46' W 074°03'210.0
2018-Feb-13 08:57N 39°44' W 074°03'6 9.9
2018-Feb-13 08:22N 39°39' W 074°07'60 6.9
2018-Feb-12 23:38N 39°10' W 075°15'1 9.6
2018-Feb-12 23:30N 39°11' W 075°16'5 9.8
2018-Feb-12 23:00N 39°15' W 075°19'510.0
2018-Feb-12 22:30N 39°19' W 075°24'511.0
2018-Feb-12 22:00N 39°23' W 075°28'611.4
2018-Feb-12 21:30N 39°27' W 075°33'611.6
2018-Feb-12 21:00N 39°33' W 075°33'611.6
2018-Feb-12 20:30N 39°38' W 075°34'612.7
2018-Feb-12 20:00N 39°44' W 075°30'612.2
2018-Feb-12 19:30N 39°48' W 075°25'612.0
2018-Feb-12 19:01N 39°51' W 075°18'611.4
2018-Feb-12 18:31N 39°53' W 075°11'0 0.9
2018-Feb-12 18:01N 39°53' W 075°10'1 1.1
2018-Feb-12 17:30N 39°53' W 075°11'4 8.1
2018-Feb-12 17:00N 39°51' W 075°15'4 9.0
2018-Feb-12 16:30N 39°50' W 075°21'5 9.2
2018-Feb-12 16:00N 39°48' W 075°26'5 9.5
2018-Feb-12 15:30N 39°44' W 075°30'5 9.6
2018-Feb-12 15:00N 39°40' W 075°32'4 8.4
2018-Feb-12 14:30N 39°36' W 075°34'3 5.7
2018-Feb-12 14:00N 39°33' W 075°36'4 8.1
2018-Feb-12 13:30N 39°33' W 075°41'4 8.8
2018-Feb-12 13:00N 39°32' W 075°47'4 8.9
2018-Feb-12 12:30N 39°31' W 075°53'5 9.5
2018-Feb-12 12:00N 39°28' W 075°58'5 9.6
2018-Feb-12 11:29N 39°25' W 076°02'5 9.5
2018-Feb-12 11:00N 39°22' W 076°07'11 8.6
2018-Feb-12 09:44N 39°13' W 076°15'4 8.7
2018-Feb-12 09:18N 39°10' W 076°18'4 1.1
2018-Feb-12 05:19N 39°06' W 076°20'2 5.1
2018-Feb-12 04:55N 39°04' W 076°21'3 7.8
2018-Feb-12 04:29N 39°01' W 076°22'4 8.0
2018-Feb-12 04:00N 38°57' W 076°23'4 8.3
2018-Feb-12 03:30N 38°53' W 076°24'4 8.7
2018-Feb-12 03:00N 38°49' W 076°26'99 8.4
2018-Feb-11 15:12N 37°11' W 076°10'2 9.1
2018-Feb-11 14:56N 37°09' W 076°09'5 9.2
2018-Feb-11 14:26N 37°04' W 076°10'4 8.8
2018-Feb-11 14:00N 37°00' W 076°12'5 9.5
2018-Feb-11 13:30N 36°60' W 076°18'3 5.1
2018-Feb-11 12:59N 36°58' W 076°20'3 6.3
2018-Feb-11 12:29N 36°57' W 076°24'4 8.0
2018-Feb-11 12:00N 36°60' W 076°28'1 0.0
2018-Feb-10 05:44N 37°00' W 076°28'4 7.4
2018-Feb-10 05:14N 36°58' W 076°25'0 0.9
2018-Feb-10 05:00N 36°58' W 076°25'0 0.1
2018-Feb-10 04:19N 36°58' W 076°25'0 0.1
2018-Feb-10 03:55N 36°58' W 076°25'0 0.0
2018-Feb-10 03:25N 36°58' W 076°25'0 0.0
2018-Feb-10 02:55N 36°58' W 076°25'0 0.0
2018-Feb-10 02:25N 36°58' W 076°25'0 0.0
2018-Feb-10 01:58N 36°58' W 076°25'0 0.0
2018-Feb-10 01:25N 36°58' W 076°25'0 0.0
2018-Feb-10 00:58N 36°58' W 076°25'0 0.0
2018-Feb-10 00:25N 36°58' W 076°25'0 0.0
2018-Feb-09 23:58N 36°58' W 076°25'0 0.0
2018-Feb-09 23:28N 36°58' W 076°25'0 0.0
2018-Feb-09 22:58N 36°58' W 076°25'0 0.0
2018-Feb-09 22:40N 36°58' W 076°25'0 0.0
2018-Feb-09 21:00N 36°58' W 076°25'3 0.3
2018-Feb-09 12:31N 36°58' W 076°22'  

Dump ship's entire track history